createdAt,value
2022-10-23T00:01:42.414Z,101049.25
2022-10-23T00:04:19.408Z,101045.06
2022-10-23T00:06:47.598Z,101040.88
2022-10-23T00:09:18.819Z,101036.63
2022-10-23T00:11:48.052Z,101039.47
2022-10-23T00:14:16.884Z,101032.09
2022-10-23T00:16:44.984Z,101039.13
2022-10-23T00:19:12.876Z,101045.06
2022-10-23T00:21:40.163Z,101044.59
2022-10-23T00:26:38.361Z,101039.69
2022-10-23T00:29:05.125Z,101043.16
2022-10-23T00:31:32.779Z,101035.03
2022-10-23T00:33:59.969Z,101032.22
2022-10-23T00:36:27.091Z,101043.91
2022-10-23T00:38:53.879Z,101045.66
2022-10-23T00:41:29.255Z,101044.53
2022-10-23T00:44:18.721Z,101042.13
2022-10-23T00:46:46.302Z,101042.78
2022-10-23T00:49:14.709Z,101036.34
2022-10-23T00:51:49.029Z,101031.66
2022-10-23T00:54:23.841Z,101030.81
2022-10-23T00:56:56.402Z,101022.06
2022-10-23T00:59:23.656Z,101025.03
2022-10-23T01:01:50.745Z,101031.63
2022-10-23T01:04:18.228Z,101027.22
2022-10-23T01:07:12.753Z,101032.38
2022-10-23T01:10:13.397Z,101032.91
2022-10-23T01:13:03.669Z,101037.09
2022-10-23T01:15:51.348Z,101018.25
2022-10-23T01:19:08.645Z,101016.41
2022-10-23T01:21:58.868Z,101008.28
2022-10-23T01:24:47.032Z,101012.69
2022-10-23T01:27:17.154Z,101008.28
2022-10-23T01:30:06.680Z,101016.41
2022-10-23T01:32:44.461Z,101004.81
2022-10-23T01:35:20.569Z,101006.78
2022-10-23T01:38:16.674Z,101005.28
2022-10-23T01:41:10.158Z,101011.28
2022-10-23T01:43:47.913Z,101004.47
2022-10-23T01:46:18.159Z,101001.88
2022-10-23T01:48:52.675Z,100995.59
2022-10-23T01:51:25.722Z,100998.66
2022-10-23T01:53:59.603Z,100998.25
2022-10-23T01:56:33.304Z,100989.63
2022-10-23T01:59:08.518Z,100998.97
2022-10-23T02:01:44.304Z,100978.50
2022-10-23T02:04:21.753Z,100969.84
2022-10-23T02:06:48.549Z,100975.69
2022-10-23T02:09:16.080Z,100977.13
2022-10-23T02:12:02.863Z,100978.59
2022-10-23T02:14:45.964Z,100975.34
2022-10-23T02:17:27.795Z,100976.53
2022-10-23T02:20:10.739Z,100975.03
2022-10-23T02:22:46.751Z,100969.97
2022-10-23T02:25:38.423Z,100974.72
2022-10-23T02:28:15.322Z,100969.41
2022-10-23T02:30:49.167Z,100975.69
2022-10-23T02:33:18.797Z,100975.47
2022-10-23T02:35:48.493Z,100971.59
2022-10-23T02:38:40.989Z,100972.00
2022-10-23T02:41:13.897Z,100966.50
2022-10-23T02:44:03.379Z,100968.94
2022-10-23T02:46:47.115Z,100963.53
2022-10-23T02:49:25.170Z,100947.28
2022-10-23T02:52:07.110Z,100932.16
2022-10-23T02:54:41.737Z,100933.00
2022-10-23T02:57:24.356Z,100912.22
2022-10-23T03:00:08.368Z,100910.50
2022-10-23T03:02:46.600Z,100898.81
2022-10-23T03:05:22.464Z,100898.81
2022-10-23T03:07:49.952Z,100898.56
2022-10-23T03:10:18.489Z,100894.88
2022-10-23T03:12:47.137Z,100894.69
2022-10-23T03:15:14.380Z,100885.56
2022-10-23T03:17:41.580Z,100887.28
2022-10-23T03:20:10.175Z,100882.75
2022-10-23T03:22:36.925Z,100879.06
2022-10-23T03:25:04.433Z,100878.91
2022-10-23T03:27:32.670Z,100878.81
2022-10-23T03:30:05.591Z,100879.44
2022-10-23T03:32:34.252Z,100873.06
2022-10-23T03:35:01.134Z,100870.34
2022-10-23T03:37:27.942Z,100866.66
2022-10-23T03:39:54.987Z,100858.41
2022-10-23T03:42:22.148Z,100855.59
2022-10-23T03:44:49.479Z,100850.91
2022-10-23T03:47:16.259Z,100850.81
2022-10-23T03:49:43.053Z,100841.81
2022-10-23T03:52:10.739Z,100838.88
2022-10-23T03:54:37.511Z,100838.88
2022-10-23T03:57:04.551Z,100842.56
2022-10-23T03:59:31.437Z,100840.81
2022-10-23T04:01:59.513Z,100845.50
2022-10-23T04:04:27.177Z,100839.13
2022-10-23T04:06:54.001Z,100839.13
2022-10-23T04:09:21.557Z,100841.09
2022-10-23T04:11:49.013Z,100824.84
2022-10-23T04:14:16.695Z,100826.56
2022-10-23T04:16:43.492Z,100819.16
2022-10-23T04:19:10.332Z,100818.09
2022-10-23T04:21:37.179Z,100814.38
2022-10-23T04:24:04.287Z,100809.59
2022-10-23T04:26:32.674Z,100805.91
2022-10-23T04:28:59.547Z,100797.78
2022-10-23T04:31:28.798Z,100806.88
2022-10-23T04:33:55.674Z,100811.56
2022-10-23T04:36:29.228Z,100806.25
2022-10-23T04:38:58.989Z,100802.69
2022-10-23T04:41:25.879Z,100804.41
2022-10-23T04:43:52.634Z,100802.47
2022-10-23T04:46:20.020Z,100800.50
2022-10-23T04:48:48.187Z,100802.19
2022-10-23T04:51:41.231Z,100795.69
2022-10-23T04:54:28.563Z,100800.00
2022-10-23T04:57:11.244Z,100796.31
2022-10-23T04:59:54.421Z,100798.03
2022-10-23T05:02:21.189Z,100794.34
2022-10-23T05:04:49.734Z,100790.66
2022-10-23T05:07:36.335Z,100792.38
2022-10-23T05:10:22.518Z,100783.25
2022-10-23T05:13:02.079Z,100785.84
2022-10-23T05:15:29.116Z,100785.00
2022-10-23T05:18:07.536Z,100785.75
2022-10-23T05:20:36.434Z,100779.59
2022-10-23T05:23:09.489Z,100770.72
2022-10-23T05:25:36.709Z,100763.56
2022-10-23T05:28:14.535Z,100768.97
2022-10-23T05:30:42.677Z,100768.97
2022-10-23T05:33:11.447Z,100774.28
2022-10-23T05:35:44.934Z,100767.91
2022-10-23T05:38:14.534Z,100768.75
2022-10-23T05:40:42.098Z,100772.19
2022-10-23T05:43:14.191Z,100762.22
2022-10-23T05:45:50.026Z,100761.34
2022-10-23T05:48:39.953Z,100757.69
2022-10-23T05:51:38.771Z,100765.81
2022-10-23T05:54:43.669Z,100761.25
2022-10-23T05:57:22.995Z,100754.81
2022-10-23T05:59:51.848Z,100757.69
2022-10-23T06:02:18.737Z,100752.13
2022-10-23T06:04:52.698Z,100750.53
2022-10-23T06:07:35.910Z,100744.13
2022-10-23T06:10:06.898Z,100738.72
2022-10-23T06:12:38.465Z,100736.97
2022-10-23T06:15:06.841Z,100745.09
2022-10-23T06:17:52.432Z,100734.28
2022-10-23T06:20:21.569Z,100736.00
2022-10-23T06:23:01.261Z,100724.06
2022-10-23T06:25:56.569Z,100722.09
2022-10-23T06:28:32.007Z,100726.41
2022-10-23T06:30:59.841Z,100721.00
2022-10-23T06:33:27.001Z,100727.16
2022-10-23T06:35:56.701Z,100733.31
2022-10-23T06:38:23.802Z,100725.91
2022-10-23T06:40:57.508Z,100720.25
2022-10-23T06:43:31.934Z,100721.97
2022-10-23T06:46:30.082Z,100712.84
2022-10-23T06:49:16.548Z,100716.31
2022-10-23T06:51:48.641Z,100704.47
2022-10-23T06:54:17.281Z,100706.94
2022-10-23T06:56:50.640Z,100698.69
2022-10-23T06:59:21.969Z,100700.25
2022-10-23T07:01:51.291Z,100697.56
2022-10-23T07:04:18.413Z,100701.00
2022-10-23T07:07:01.488Z,100695.34
2022-10-23T07:09:37.196Z,100691.53
2022-10-23T07:12:28.515Z,100700.28
2022-10-23T07:15:16.460Z,100704.56
2022-10-23T07:17:43.792Z,100702.47
2022-10-23T07:20:10.825Z,100700.38
2022-10-23T07:22:38.441Z,100699.88
2022-10-23T07:25:14.128Z,100697.88
2022-10-23T07:27:41.361Z,100694.06
2022-10-23T07:30:10.636Z,100697.41
2022-10-23T07:32:45.099Z,100682.72
2022-10-23T07:35:33.049Z,100681.72
2022-10-23T07:38:13.801Z,100685.91
2022-10-23T07:40:45.412Z,100686.63
2022-10-23T07:43:15.506Z,100677.28
2022-10-23T07:45:42.541Z,100677.03
2022-10-23T07:48:17.292Z,100674.94
2022-10-23T07:51:10.796Z,100672.81
2022-10-23T07:53:45.111Z,100674.28
2022-10-23T07:56:37.969Z,100679.44
2022-10-23T07:59:14.547Z,100669.06
2022-10-23T08:01:49.541Z,100668.66
2022-10-23T08:04:19.467Z,100668.28
2022-10-23T08:06:56.388Z,100667.88
2022-10-23T08:09:24.722Z,100664.78
2022-10-23T08:11:51.441Z,100665.22
2022-10-23T08:14:19.930Z,100658.56
2022-10-23T08:16:47.854Z,100658.03
2022-10-23T08:19:35.185Z,100662.06
2022-10-23T08:22:03.825Z,100656.97
2022-10-23T08:24:30.773Z,100659.28
2022-10-23T08:26:58.726Z,100654.19
2022-10-23T08:29:26.581Z,100654.50
2022-10-23T08:31:56.351Z,100649.38
2022-10-23T08:34:27.605Z,100646.88
2022-10-23T08:36:55.398Z,100655.47
2022-10-23T08:39:23.638Z,100659.22
2022-10-23T08:42:04.851Z,100663.22
2022-10-23T08:44:59.850Z,100644.69
2022-10-23T08:47:38.977Z,100644.16
2022-10-23T08:50:32.411Z,100647.31
2022-10-23T08:53:50.760Z,100641.59
2022-10-23T08:56:29.425Z,100630.72
2022-10-23T08:59:11.351Z,100627.75
2022-10-23T09:01:47.972Z,100628.47
2022-10-23T09:04:16.496Z,100633.75
2022-10-23T09:07:16.066Z,100628.91
2022-10-23T09:10:01.685Z,100615.91
2022-10-23T09:12:31.293Z,100616.47
2022-10-23T09:15:35.105Z,100613.31
2022-10-23T09:18:13.612Z,100610.34
2022-10-23T09:20:43.965Z,100606.47
2022-10-23T09:23:21.357Z,100593.56
2022-10-23T09:25:55.365Z,100589.59
2022-10-23T09:28:29.576Z,100583.00
2022-10-23T09:31:11.828Z,100578.13
2022-10-23T09:33:39.471Z,100578.56
2022-10-23T09:36:17.988Z,100581.88
2022-10-23T09:38:51.287Z,100577.72
2022-10-23T09:41:24.783Z,100579.28
2022-10-23T09:44:27.705Z,100580.88
2022-10-23T09:47:07.746Z,100568.81
2022-10-23T09:49:35.331Z,100563.25
2022-10-23T09:52:12.899Z,100557.50
2022-10-23T09:54:50.533Z,100558.38
2022-10-23T09:57:37.019Z,100547.16
2022-10-23T10:00:26.657Z,100546.75
2022-10-23T10:03:06.844Z,100552.06
2022-10-23T10:06:03.575Z,100540.84
2022-10-23T10:08:48.811Z,100541.41
2022-10-23T10:11:35.261Z,100535.97
2022-10-23T10:14:14.143Z,100531.97
2022-10-23T10:17:05.562Z,100519.09
2022-10-23T10:19:39.679Z,100522.22
2022-10-23T10:22:24.492Z,100514.75
2022-10-23T10:25:27.294Z,100502.84
2022-10-23T10:28:39.518Z,100498.09
2022-10-23T10:31:20.305Z,100493.25
2022-10-23T10:34:30.035Z,100480.06
2022-10-23T10:36:59.952Z,100468.19
2022-10-23T10:40:09.286Z,100474.19
2022-10-23T10:42:49.846Z,100464.00
2022-10-23T10:45:27.236Z,100480.03
2022-10-23T10:48:40.507Z,100481.13
2022-10-23T10:51:49.299Z,100464.19
2022-10-23T10:54:42.915Z,100470.06
2022-10-23T10:57:36.873Z,100463.16
2022-10-23T11:00:18.186Z,100470.41
2022-10-23T11:03:04.656Z,100466.63
2022-10-23T11:05:45.511Z,100458.81
2022-10-23T11:08:22.371Z,100444.44
2022-10-23T11:11:00.318Z,100454.41
2022-10-23T11:13:40.453Z,100442.97
2022-10-23T11:16:39.160Z,100439.88
2022-10-23T11:19:29.378Z,100433.28
2022-10-23T11:22:37.105Z,100425.34
2022-10-23T11:25:36.406Z,100420.97
2022-10-23T11:28:49.123Z,100410.81
2022-10-23T11:31:52.620Z,100392.44
2022-10-23T11:35:08.177Z,100415.34
2022-10-23T11:37:35.073Z,100393.88
2022-10-23T11:40:22.726Z,100413.53
2022-10-23T11:42:51.580Z,100413.25
2022-10-23T11:45:38.173Z,100403.91
2022-10-23T11:48:20.765Z,100393.19
2022-10-23T11:50:55.480Z,100388.59
2022-10-23T11:53:37.047Z,100386.28
2022-10-23T11:56:11.780Z,100384.97
2022-10-23T11:58:52.820Z,100360.22
2022-10-23T12:01:36.309Z,100353.22
2022-10-23T12:04:20.953Z,100361.78
2022-10-23T12:07:00.752Z,100361.09
2022-10-23T12:09:36.078Z,100362.13
2022-10-23T12:12:08.951Z,100356.31
2022-10-23T12:14:46.007Z,100364.38
2022-10-23T12:17:24.830Z,100363.53
2022-10-23T12:20:01.979Z,100361.47
2022-10-23T12:22:39.707Z,100344.03
2022-10-23T12:25:17.108Z,100348.47
2022-10-23T12:28:00.954Z,100338.91
2022-10-23T12:31:10.923Z,100343.03
2022-10-23T12:34:10.641Z,100339.94
2022-10-23T12:36:59.547Z,100327.78
2022-10-23T12:39:40.133Z,100329.16
2022-10-23T12:42:20.860Z,100324.53
2022-10-23T12:45:18.522Z,100313.94
2022-10-23T12:47:47.806Z,100312.59
2022-10-23T12:50:21.188Z,100305.38
2022-10-23T12:52:59.114Z,100304.38
2022-10-23T12:55:33.568Z,100295.31
2022-10-23T12:58:02.622Z,100288.63
2022-10-23T13:00:29.447Z,100284.53
2022-10-23T13:03:04.609Z,100282.13
2022-10-23T13:05:32.587Z,100291.91
2022-10-23T13:08:02.527Z,100276.34
2022-10-23T13:10:49.533Z,100274.47
2022-10-23T13:13:23.721Z,100267.09
2022-10-23T13:15:51.437Z,100263.34
2022-10-23T13:18:18.638Z,100259.22
2022-10-23T13:20:51.454Z,100246.22
2022-10-23T13:23:31.087Z,100240.06
2022-10-23T13:26:05.340Z,100241.47
2022-10-23T13:28:41.517Z,100229.84
2022-10-23T13:31:29.537Z,100235.31
2022-10-23T13:34:01.950Z,100225.53
2022-10-23T13:36:34.059Z,100222.63
2022-10-23T13:39:09.972Z,100229.13
2022-10-23T13:41:43.021Z,100212.31
2022-10-23T13:44:15.015Z,100196.94
2022-10-23T13:46:43.702Z,100192.50
2022-10-23T13:49:10.668Z,100207.00
2022-10-23T13:51:44.914Z,100191.91
2022-10-23T13:54:24.932Z,100192.06
2022-10-23T13:56:54.672Z,100192.56
2022-10-23T13:59:22.422Z,100191.03
2022-10-23T14:01:50.698Z,100189.66
2022-10-23T14:04:18.760Z,100194.41
2022-10-23T14:06:45.789Z,100181.03
2022-10-23T14:09:17.780Z,100193.31
2022-10-23T14:11:45.423Z,100185.97
2022-10-23T14:14:12.349Z,100186.34
2022-10-23T14:16:39.879Z,100192.16
2022-10-23T14:19:07.953Z,100196.06
2022-10-23T14:21:34.771Z,100184.09
2022-10-23T14:24:01.498Z,100184.78
2022-10-23T14:26:30.262Z,100179.69
2022-10-23T14:29:02.251Z,100184.78
2022-10-23T14:31:33.664Z,100177.25
2022-10-23T14:34:01.698Z,100175.75
2022-10-23T14:36:38.576Z,100176.25
2022-10-23T14:39:16.663Z,100176.16
2022-10-23T14:41:44.032Z,100182.63
2022-10-23T14:44:10.944Z,100189.50
2022-10-23T14:46:38.778Z,100189.38
2022-10-23T14:49:06.095Z,100184.63
2022-10-23T14:51:33.457Z,100185.63
2022-10-23T14:54:04.139Z,100187.91
2022-10-23T14:56:34.305Z,100175.41
2022-10-23T14:59:04.295Z,100176.44
2022-10-23T15:01:38.026Z,100174.38
2022-10-23T15:04:05.846Z,100168.41
2022-10-23T15:06:34.395Z,100171.66
2022-10-23T15:09:03.736Z,100163.84
2022-10-23T15:11:31.288Z,100159.22
2022-10-23T15:14:00.636Z,100157.31
2022-10-23T15:16:27.641Z,100159.03
2022-10-23T15:18:54.366Z,100155.81
2022-10-23T15:21:21.114Z,100151.19
2022-10-23T15:23:48.291Z,100150.16
2022-10-23T15:26:23.923Z,100149.44
2022-10-23T15:28:59.617Z,100151.53
2022-10-23T15:31:29.100Z,100152.56
2022-10-23T15:34:00.184Z,100147.06
2022-10-23T15:36:27.105Z,100139.59
2022-10-23T15:38:53.868Z,100134.81
2022-10-23T15:41:32.961Z,100136.88
2022-10-23T15:44:01.552Z,100134.34
2022-10-23T15:46:28.933Z,100135.19
2022-10-23T15:48:55.756Z,100138.94
2022-10-23T15:51:22.621Z,100138.81
2022-10-23T15:53:49.524Z,100135.88
2022-10-23T15:56:16.572Z,100123.25
2022-10-23T15:58:43.500Z,100120.34
2022-10-23T16:01:10.376Z,100115.41
2022-10-23T16:03:39.288Z,100097.84
2022-10-23T16:06:16.033Z,100094.22
2022-10-23T16:08:46.135Z,100077.81
2022-10-23T16:11:36.975Z,100052.22
2022-10-23T16:14:05.029Z,100036.72
2022-10-23T16:16:32.903Z,100033.47
2022-10-23T16:19:04.907Z,100020.19
2022-10-23T16:21:36.155Z,100015.06
2022-10-23T16:24:07.077Z,100031.78
2022-10-23T16:26:35.505Z,100045.47
2022-10-23T16:29:06.713Z,100054.31
2022-10-23T16:31:34.176Z,100043.09
2022-10-23T16:34:03.152Z,100052.66
2022-10-23T16:36:30.085Z,100073.81
2022-10-23T16:39:19.654Z,100080.66
2022-10-23T16:42:07.032Z,100077.91
2022-10-23T16:44:57.070Z,100076.91
2022-10-23T16:47:24.085Z,100091.56
2022-10-23T16:49:50.852Z,100104.56
2022-10-23T16:52:17.698Z,100100.44
2022-10-23T16:54:44.667Z,100097.56
2022-10-23T16:57:11.519Z,100071.44
2022-10-23T16:59:38.378Z,100053.69
2022-10-23T17:02:05.408Z,100068.72
2022-10-23T17:04:32.335Z,100074.50
2022-10-23T17:06:59.066Z,100063.59
2022-10-23T17:09:27.498Z,100063.59
2022-10-23T17:11:54.760Z,100069.38
2022-10-23T17:14:21.566Z,100050.94
2022-10-23T17:16:51.719Z,100062.91
2022-10-23T17:19:45.076Z,100064.97
2022-10-23T17:22:12.609Z,100065.31
2022-10-23T17:24:41.531Z,100060.50
2022-10-23T17:27:08.866Z,100064.97
2022-10-23T17:29:36.003Z,100067.16
2022-10-23T17:32:03.111Z,100070.25
2022-10-23T17:34:29.870Z,100073.13
2022-10-23T17:36:57.211Z,100069.41
2022-10-23T17:39:28.297Z,100066.00
2022-10-23T17:41:57.002Z,100059.53
2022-10-23T17:44:24.543Z,100072.97
2022-10-23T17:46:53.563Z,100066.66
2022-10-23T17:49:21.388Z,100078.28
2022-10-23T17:51:53.725Z,100076.91
2022-10-23T17:54:21.034Z,100072.31
2022-10-23T17:56:47.774Z,100074.53
2022-10-23T17:59:18.798Z,100066.66
2022-10-23T18:01:49.007Z,100067.72
2022-10-23T18:04:19.855Z,100056.03
2022-10-23T18:06:53.290Z,100053.69
2022-10-23T18:09:22.872Z,100057.44
2022-10-23T18:11:50.548Z,100063.56
2022-10-23T18:14:20.093Z,100066.00
2022-10-23T18:16:47.434Z,100055.91
2022-10-23T18:19:18.071Z,100066.00
2022-10-23T18:21:45.889Z,100053.69
2022-10-23T18:24:13.410Z,100050.59
2022-10-23T18:26:42.251Z,100052.31
2022-10-23T18:29:11.474Z,100054.72
2022-10-23T18:31:39.129Z,100059.66
2022-10-23T18:34:22.292Z,100051.63
2022-10-23T18:36:54.411Z,100048.22
2022-10-23T18:39:25.693Z,100043.81
2022-10-23T18:41:57.248Z,100048.41
2022-10-23T18:44:28.950Z,100035.78
2022-10-23T18:46:59.065Z,100039.34
2022-10-23T18:49:26.045Z,100033.22
2022-10-23T18:51:52.814Z,100029.47
2022-10-23T18:54:21.956Z,100034.59
2022-10-23T18:56:49.458Z,100034.59
2022-10-23T18:59:20.295Z,100030.81
2022-10-23T19:01:48.160Z,100017.84
2022-10-23T19:04:16.106Z,100026.91
2022-10-23T19:06:43.877Z,100032.19
2022-10-23T19:09:16.128Z,100035.44
2022-10-23T19:11:45.211Z,100042.06
2022-10-23T19:14:12.983Z,100041.75
2022-10-23T19:17:08.130Z,100055.06
2022-10-23T19:19:45.768Z,100079.66
2022-10-23T19:22:16.813Z,100113.44
2022-10-23T19:25:01.654Z,100120.59
2022-10-23T19:27:29.746Z,100138.00
2022-10-23T19:30:03.236Z,100123.50
2022-10-23T19:32:29.974Z,100133.38
2022-10-23T19:34:56.710Z,100095.97
2022-10-23T19:37:23.606Z,100068.63
2022-10-23T19:39:50.460Z,100079.44
2022-10-23T19:42:17.249Z,100080.72
2022-10-23T19:44:44.364Z,100077.19
2022-10-23T19:47:11.074Z,100087.28
2022-10-23T19:49:38.331Z,100096.75
2022-10-23T19:52:05.430Z,100112.34
2022-10-23T19:54:32.237Z,100102.09
2022-10-23T19:56:59.152Z,100101.97
2022-10-23T19:59:26.022Z,100101.44
2022-10-23T20:01:52.829Z,100099.91
2022-10-23T20:04:19.726Z,100093.59
2022-10-23T20:06:47.521Z,100099.91
2022-10-23T20:09:14.513Z,100092.72
2022-10-23T20:11:42.524Z,100101.03
2022-10-23T20:14:09.336Z,100114.84
2022-10-23T20:16:39.315Z,100126.56
2022-10-23T20:19:10.195Z,100121.34
2022-10-23T20:21:40.033Z,100125.00
2022-10-23T20:24:08.505Z,100114.19
2022-10-23T20:26:35.328Z,100125.72
2022-10-23T20:29:02.069Z,100130.09
2022-10-23T20:31:28.867Z,100123.22
2022-10-23T20:33:56.609Z,100138.84
2022-10-23T20:36:33.079Z,100133.41
2022-10-23T20:39:05.505Z,100133.41
2022-10-23T20:41:36.805Z,100124.41
2022-10-23T20:44:07.858Z,100134.44
2022-10-23T20:46:34.888Z,100138.69
2022-10-23T20:49:01.574Z,100145.53
2022-10-23T20:51:28.336Z,100147.09
2022-10-23T20:53:55.087Z,100140.31
2022-10-23T20:56:31.216Z,100145.78
2022-10-23T20:59:07.660Z,100143.19
2022-10-23T21:01:35.595Z,100139.47
2022-10-23T21:04:03.608Z,100133.50
2022-10-23T21:06:46.213Z,100132.81
2022-10-23T21:09:18.775Z,100144.69
2022-10-23T21:11:45.679Z,100132.09
2022-10-23T21:14:12.573Z,100132.09
2022-10-23T21:16:44.201Z,100129.38
2022-10-23T21:19:14.547Z,100125.25
2022-10-23T21:21:41.941Z,100142.75
2022-10-23T21:24:14.723Z,100139.88
2022-10-23T21:26:41.768Z,100139.88
2022-10-23T21:29:24.268Z,100126.31
2022-10-23T21:31:56.973Z,100129.75
2022-10-23T21:34:26.345Z,100120.59
2022-10-23T21:37:12.437Z,100122.28
2022-10-23T21:39:44.604Z,100118.25
2022-10-23T21:42:13.777Z,100117.91
2022-10-23T21:44:40.597Z,100126.78
2022-10-23T21:47:07.617Z,100121.34
2022-10-23T21:49:34.444Z,100123.91
2022-10-23T21:52:01.212Z,100126.47
2022-10-23T21:54:27.991Z,100123.28
2022-10-23T21:56:54.839Z,100116.97
2022-10-23T21:59:25.925Z,100113.00
2022-10-23T22:01:54.966Z,100112.47
2022-10-23T22:04:22.345Z,100116.22
2022-10-23T22:06:49.857Z,100117.22
2022-10-23T22:09:20.433Z,100119.94
2022-10-23T22:11:52.812Z,100115.53
2022-10-23T22:14:20.708Z,100120.81
2022-10-23T22:16:48.841Z,100117.91
2022-10-23T22:19:18.191Z,100113.16
2022-10-23T22:21:45.117Z,100120.50
2022-10-23T22:24:12.191Z,100124.78
2022-10-23T22:26:43.602Z,100120.13
2022-10-23T22:29:14.825Z,100128.28
2022-10-23T22:31:45.579Z,100123.53
2022-10-23T22:34:47.842Z,100125.56
2022-10-23T22:37:11.505Z,100117.53
2022-10-23T22:39:39.751Z,100113.34
2022-10-23T22:42:06.822Z,100117.47
2022-10-23T22:44:33.570Z,100117.47
2022-10-23T22:47:00.437Z,100113.72
2022-10-23T22:49:27.173Z,100091.63
2022-10-23T22:51:53.967Z,100093.66
2022-10-23T22:54:20.705Z,100095.88
2022-10-23T22:56:47.455Z,100088.94
2022-10-23T22:59:14.816Z,100084.38
2022-10-23T23:01:46.051Z,100084.84
2022-10-23T23:04:36.811Z,100087.91
2022-10-23T23:07:07.271Z,100082.75
2022-10-23T23:09:37.672Z,100085.19
2022-10-23T23:12:06.073Z,100079.50
2022-10-23T23:14:33.019Z,100087.97
2022-10-23T23:16:59.790Z,100079.59
2022-10-23T23:19:26.656Z,100079.91
2022-10-23T23:21:58.813Z,100083.94
2022-10-23T23:24:26.855Z,100068.63
2022-10-23T23:26:53.613Z,100070.66
2022-10-23T23:29:20.392Z,100062.09
2022-10-23T23:31:47.197Z,100062.41
2022-10-23T23:34:14.097Z,100072.53
2022-10-23T23:36:41.215Z,100067.72
2022-10-23T23:39:08.027Z,100069.72
2022-10-23T23:41:34.804Z,100075.50
2022-10-23T23:44:01.561Z,100068.34
2022-10-23T23:46:28.323Z,100068.97
2022-10-23T23:48:55.157Z,100065.03
2022-10-23T23:51:25.607Z,100061.91
2022-10-23T23:53:53.333Z,100061.34
2022-10-23T23:56:21.133Z,100063.38
2022-10-23T23:58:48.586Z,100057.94
